createdAt,value
2024-04-14T00:02:17.766Z,61.65
2024-04-14T00:04:53.571Z,62.81
2024-04-14T00:07:22.812Z,63.51
2024-04-14T00:09:51.378Z,64.08
2024-04-14T00:12:19.853Z,64.12
2024-04-14T00:14:48.520Z,64.49
2024-04-14T00:17:17.029Z,64.68
2024-04-14T00:19:45.494Z,64.07
2024-04-14T00:22:14.794Z,64.23
2024-04-14T00:24:43.211Z,64.01
2024-04-14T00:27:11.714Z,63.77
2024-04-14T00:29:40.394Z,63.47
2024-04-14T00:32:08.869Z,63.64
2024-04-14T00:34:37.379Z,64.00
2024-04-14T00:37:06.950Z,64.22
2024-04-14T00:39:35.451Z,64.33
2024-04-14T00:42:04.101Z,64.24
2024-04-14T00:44:32.628Z,64.45
2024-04-14T00:47:02.710Z,64.19
2024-04-14T00:49:31.949Z,63.96
2024-04-14T00:52:03.964Z,64.34
2024-04-14T00:54:33.637Z,64.34
2024-04-14T00:57:06.768Z,64.62
2024-04-14T00:59:35.597Z,64.99
2024-04-14T01:02:07.333Z,65.51
2024-04-14T01:04:36.488Z,66.00
2024-04-14T01:07:05.604Z,66.26
2024-04-14T01:09:34.423Z,66.60
2024-04-14T01:12:03.260Z,66.43
2024-04-14T01:14:31.998Z,66.12
2024-04-14T01:17:00.910Z,65.98
2024-04-14T01:19:29.707Z,65.73
2024-04-14T01:21:58.412Z,65.57
2024-04-14T01:24:27.102Z,65.20
2024-04-14T01:26:55.550Z,64.41
2024-04-14T01:29:23.983Z,65.17
2024-04-14T01:31:52.395Z,66.10
2024-04-14T01:34:21.864Z,65.60
2024-04-14T01:36:50.723Z,65.77
2024-04-14T01:39:20.099Z,66.31
2024-04-14T01:41:48.564Z,66.32
2024-04-14T01:44:16.918Z,66.77
2024-04-14T01:46:45.398Z,67.90
2024-04-14T01:49:14.626Z,68.10
2024-04-14T01:51:43.289Z,67.75
2024-04-14T01:54:12.857Z,68.20
2024-04-14T01:56:41.352Z,68.22
2024-04-14T01:59:10.018Z,68.42
2024-04-14T02:01:38.624Z,67.53
2024-04-14T02:04:07.471Z,67.22
2024-04-14T02:06:36.015Z,67.23
2024-04-14T02:09:04.607Z,68.42
2024-04-14T02:11:33.128Z,68.24
2024-04-14T02:14:02.574Z,67.51
2024-04-14T02:16:30.997Z,67.80
2024-04-14T02:18:59.386Z,67.46
2024-04-14T02:21:28.052Z,68.46
2024-04-14T02:23:56.976Z,69.60
2024-04-14T02:26:25.369Z,69.54
2024-04-14T02:28:53.746Z,69.14
2024-04-14T02:31:22.458Z,69.31
2024-04-14T02:33:50.963Z,68.96
2024-04-14T02:36:20.796Z,68.90
2024-04-14T02:38:49.901Z,68.91
2024-04-14T02:41:18.135Z,68.77
2024-04-14T02:43:46.499Z,68.16
2024-04-14T02:46:15.068Z,69.03
2024-04-14T02:48:50.702Z,69.75
2024-04-14T02:51:20.731Z,69.85
2024-04-14T02:53:49.211Z,69.55
2024-04-14T02:56:18.035Z,70.01
2024-04-14T02:58:46.783Z,69.66
2024-04-14T03:01:17.605Z,69.81
2024-04-14T03:03:46.752Z,70.02
2024-04-14T03:06:17.538Z,70.03
2024-04-14T03:08:46.174Z,70.25
2024-04-14T03:11:14.609Z,70.48
2024-04-14T03:13:42.872Z,70.74
2024-04-14T03:16:11.141Z,70.88
2024-04-14T03:18:40.626Z,70.88
2024-04-14T03:21:08.942Z,70.60
2024-04-14T03:23:39.182Z,70.35
2024-04-14T03:26:07.604Z,70.80
2024-04-14T03:28:36.041Z,70.87
2024-04-14T03:31:05.027Z,71.01
2024-04-14T03:33:34.098Z,71.35
2024-04-14T03:36:07.654Z,71.28
2024-04-14T03:38:36.189Z,71.63
2024-04-14T03:41:04.896Z,71.67
2024-04-14T03:43:33.529Z,71.53
2024-04-14T03:46:02.030Z,71.39
2024-04-14T03:48:30.518Z,70.82
2024-04-14T03:50:59.540Z,71.39
2024-04-14T03:53:27.855Z,72.16
2024-04-14T03:55:56.319Z,72.85
2024-04-14T03:58:24.646Z,72.81
2024-04-14T04:00:53.279Z,73.34
2024-04-14T04:03:21.772Z,73.82
2024-04-14T04:05:56.405Z,73.68
2024-04-14T04:08:25.296Z,73.88
2024-04-14T04:11:04.738Z,73.96
2024-04-14T04:13:33.858Z,73.76
2024-04-14T04:16:05.470Z,73.66
2024-04-14T04:18:35.232Z,73.70
2024-04-14T04:21:08.508Z,73.60
2024-04-14T04:23:36.795Z,73.33
2024-04-14T04:26:05.279Z,72.92
2024-04-14T04:28:34.459Z,72.48
2024-04-14T04:31:13.252Z,72.24
2024-04-14T04:33:43.051Z,71.97
2024-04-14T04:36:13.930Z,71.58
2024-04-14T04:38:45.173Z,71.51
2024-04-14T04:41:13.802Z,70.97
2024-04-14T04:43:44.435Z,70.55
2024-04-14T04:46:13.078Z,70.57
2024-04-14T04:48:42.147Z,70.43
2024-04-14T04:51:10.645Z,70.14
2024-04-14T04:53:39.889Z,69.74
2024-04-14T04:56:08.330Z,69.44
2024-04-14T04:58:41.998Z,69.17
2024-04-14T05:01:19.163Z,68.63
2024-04-14T05:03:48.190Z,68.34
2024-04-14T05:06:17.423Z,68.17
2024-04-14T05:08:45.756Z,67.95
2024-04-14T05:11:14.341Z,67.76
2024-04-14T05:13:43.016Z,67.17
2024-04-14T05:16:13.020Z,66.56
2024-04-14T05:18:41.897Z,66.12
2024-04-14T05:21:10.810Z,65.82
2024-04-14T05:23:39.561Z,65.79
2024-04-14T05:26:07.978Z,65.28
2024-04-14T05:28:36.515Z,64.82
2024-04-14T05:31:05.324Z,64.49
2024-04-14T05:33:33.854Z,63.64
2024-04-14T05:36:02.179Z,62.02
2024-04-14T05:38:32.818Z,61.87
2024-04-14T05:41:03.264Z,62.17
2024-04-14T05:43:31.871Z,61.58
2024-04-14T05:46:00.396Z,61.36
2024-04-14T05:48:29.227Z,62.00
2024-04-14T05:50:59.338Z,63.08
2024-04-14T05:53:29.362Z,63.68
2024-04-14T05:55:58.429Z,64.17
2024-04-14T05:58:26.981Z,64.39
2024-04-14T06:00:57.386Z,63.42
2024-04-14T06:03:27.281Z,62.97
2024-04-14T06:05:55.883Z,62.45
2024-04-14T06:08:24.443Z,62.48
2024-04-14T06:10:53.154Z,62.18
2024-04-14T06:13:23.478Z,61.63
2024-04-14T06:15:52.165Z,61.40
2024-04-14T06:18:20.678Z,61.18
2024-04-14T06:20:49.188Z,60.85
2024-04-14T06:23:21.123Z,60.76
2024-04-14T06:25:50.153Z,60.61
2024-04-14T06:28:18.477Z,60.06
2024-04-14T06:30:47.116Z,59.44
2024-04-14T06:33:15.978Z,59.01
2024-04-14T06:35:44.412Z,58.82
2024-04-14T06:38:12.722Z,58.25
2024-04-14T06:40:41.420Z,57.75
2024-04-14T06:43:09.954Z,56.94
2024-04-14T06:45:39.266Z,56.94
2024-04-14T06:48:08.347Z,57.05
2024-04-14T06:50:36.847Z,56.94
2024-04-14T06:53:05.324Z,56.27
2024-04-14T06:55:35.988Z,55.24
2024-04-14T06:58:05.088Z,54.33
2024-04-14T07:00:34.741Z,53.70
2024-04-14T07:03:03.355Z,53.67
2024-04-14T07:05:31.762Z,53.05
2024-04-14T07:08:00.333Z,53.03
2024-04-14T07:10:28.772Z,51.61
2024-04-14T07:12:57.274Z,51.36
2024-04-14T07:15:26.165Z,50.56
2024-04-14T07:17:54.700Z,51.46
2024-04-14T07:20:23.459Z,50.20
2024-04-14T07:22:51.938Z,50.27
2024-04-14T07:25:20.639Z,49.81
2024-04-14T07:27:49.261Z,49.97
2024-04-14T07:30:17.997Z,48.95
2024-04-14T07:32:46.854Z,48.42
2024-04-14T07:35:16.185Z,49.25
2024-04-14T07:37:44.587Z,49.12
2024-04-14T07:40:15.803Z,49.40
2024-04-14T07:42:44.492Z,49.41
2024-04-14T07:45:12.840Z,49.01
2024-04-14T07:47:44.231Z,48.15
2024-04-14T07:50:14.267Z,47.31
2024-04-14T07:52:42.699Z,46.69
2024-04-14T07:55:11.494Z,47.43
2024-04-14T07:57:41.476Z,47.79
2024-04-14T08:00:13.167Z,48.16
2024-04-14T08:02:43.305Z,47.85
2024-04-14T08:05:12.049Z,48.06
2024-04-14T08:07:41.034Z,48.78
2024-04-14T08:10:09.669Z,47.28
2024-04-14T08:12:38.503Z,47.14
2024-04-14T08:15:07.396Z,46.82
2024-04-14T08:17:35.977Z,46.46
2024-04-14T08:20:05.026Z,46.22
2024-04-14T08:22:33.706Z,45.81
2024-04-14T08:25:06.307Z,45.18
2024-04-14T08:27:34.952Z,44.90
2024-04-14T08:30:03.747Z,44.18
2024-04-14T08:32:32.326Z,44.19
2024-04-14T08:35:00.932Z,44.14
2024-04-14T08:37:29.503Z,44.30
2024-04-14T08:39:59.084Z,44.30
2024-04-14T08:42:30.105Z,43.40
2024-04-14T08:45:01.490Z,43.17
2024-04-14T08:47:32.039Z,42.35
2024-04-14T08:50:03.954Z,40.76
2024-04-14T08:52:36.459Z,39.90
2024-04-14T08:55:05.634Z,39.87
2024-04-14T08:57:34.391Z,39.26
2024-04-14T09:00:03.971Z,39.24
2024-04-14T09:02:32.593Z,39.20
2024-04-14T09:05:01.630Z,38.77
2024-04-14T09:07:30.316Z,38.12
2024-04-14T09:09:59.131Z,38.55
2024-04-14T09:12:29.226Z,38.88
2024-04-14T09:14:58.108Z,39.29
2024-04-14T09:17:26.812Z,37.42
2024-04-14T09:19:56.537Z,37.68
2024-04-14T09:22:25.059Z,36.01
2024-04-14T09:24:53.556Z,35.20
2024-04-14T09:27:23.851Z,33.76
2024-04-14T09:29:54.259Z,33.44
2024-04-14T09:32:24.320Z,33.98
2024-04-14T09:34:52.875Z,34.49
2024-04-14T09:37:21.268Z,33.50
2024-04-14T09:39:52.304Z,32.92
2024-04-14T09:42:21.351Z,32.00
2024-04-14T09:44:51.213Z,31.50
2024-04-14T09:47:22.338Z,30.84
2024-04-14T09:49:52.872Z,30.42
2024-04-14T09:52:30.488Z,29.20
2024-04-14T09:55:12.870Z,28.30
2024-04-14T09:57:50.592Z,28.57
2024-04-14T10:00:19.838Z,28.75
2024-04-14T10:02:58.406Z,30.08
2024-04-14T10:05:28.312Z,28.86
2024-04-14T10:07:57.048Z,28.42
2024-04-14T10:10:28.523Z,27.99
2024-04-14T10:12:57.536Z,28.31
2024-04-14T10:15:26.644Z,28.61
2024-04-14T10:18:20.370Z,28.06
2024-04-14T10:20:49.601Z,27.50
2024-04-14T10:23:20.495Z,27.29
2024-04-14T10:25:50.744Z,26.90
2024-04-14T10:28:23.329Z,27.06
2024-04-14T10:31:02.817Z,27.49
2024-04-14T10:33:32.607Z,28.11
2024-04-14T10:36:06.765Z,28.27
2024-04-14T10:38:35.610Z,28.87
2024-04-14T10:41:05.571Z,29.23
2024-04-14T10:43:35.941Z,29.04
2024-04-14T10:46:04.832Z,28.45
2024-04-14T10:48:34.020Z,28.60
2024-04-14T10:51:04.216Z,29.54
2024-04-14T10:53:34.831Z,29.45
2024-04-14T10:56:03.691Z,28.56
2024-04-14T10:58:35.016Z,28.33
2024-04-14T11:01:11.368Z,28.66
2024-04-14T11:03:43.593Z,28.36
2024-04-14T11:06:18.668Z,28.60
2024-04-14T11:08:48.292Z,28.30
2024-04-14T11:11:18.741Z,27.87
2024-04-14T11:13:50.012Z,28.12
2024-04-14T11:16:21.638Z,28.08
2024-04-14T11:18:52.494Z,27.25
2024-04-14T11:21:35.236Z,26.16
2024-04-14T11:24:11.499Z,26.24
2024-04-14T11:26:42.501Z,25.69
2024-04-14T11:29:11.610Z,24.81
2024-04-14T11:31:40.508Z,24.92
2024-04-14T11:34:12.609Z,25.10
2024-04-14T11:36:42.510Z,24.67
2024-04-14T11:39:12.938Z,25.24
2024-04-14T11:41:41.613Z,24.88
2024-04-14T11:44:10.969Z,24.49
2024-04-14T11:46:41.065Z,24.52
2024-04-14T11:49:20.769Z,24.83
2024-04-14T11:51:52.780Z,24.91
2024-04-14T11:54:21.753Z,24.99
2024-04-14T11:56:52.283Z,26.16
2024-04-14T11:59:21.330Z,25.98
2024-04-14T12:01:49.864Z,26.12
2024-04-14T12:04:18.671Z,26.33
2024-04-14T12:06:47.162Z,25.28
2024-04-14T12:09:15.597Z,24.72
2024-04-14T12:11:44.291Z,24.83
2024-04-14T12:14:12.775Z,24.22
2024-04-14T12:16:42.699Z,24.23
2024-04-14T12:19:12.312Z,23.79
2024-04-14T12:21:41.175Z,24.03
2024-04-14T12:24:12.345Z,23.65
2024-04-14T12:26:44.388Z,24.13
2024-04-14T12:29:19.379Z,24.21
2024-04-14T12:31:51.059Z,23.64
2024-04-14T12:34:19.565Z,23.98
2024-04-14T12:36:48.163Z,24.22
2024-04-14T12:39:23.752Z,24.23
2024-04-14T12:41:56.280Z,24.13
2024-04-14T12:44:24.724Z,23.82
2024-04-14T12:46:54.463Z,23.87
2024-04-14T12:49:26.802Z,24.18
2024-04-14T12:51:59.381Z,25.12
2024-04-14T12:54:29.300Z,25.59
2024-04-14T12:57:00.446Z,25.12
2024-04-14T12:59:29.026Z,25.04
2024-04-14T13:01:57.650Z,24.88
2024-04-14T13:04:30.007Z,25.01
2024-04-14T13:06:59.841Z,25.35
2024-04-14T13:09:28.575Z,24.95
2024-04-14T13:11:58.907Z,26.36
2024-04-14T13:14:36.412Z,26.71
2024-04-14T13:17:05.522Z,26.66
2024-04-14T13:19:35.371Z,26.96
2024-04-14T13:22:04.223Z,26.83
2024-04-14T13:24:34.908Z,26.74
2024-04-14T13:27:04.437Z,26.45
2024-04-14T13:29:36.534Z,26.23
2024-04-14T13:32:06.765Z,26.28
2024-04-14T13:34:35.724Z,25.21
2024-04-14T13:37:08.696Z,24.70
2024-04-14T13:39:37.312Z,24.62
2024-04-14T13:42:06.150Z,24.64
2024-04-14T13:44:37.305Z,25.46
2024-04-14T13:47:13.543Z,25.64
2024-04-14T13:49:41.971Z,25.68
2024-04-14T13:52:16.651Z,25.40
2024-04-14T13:54:55.854Z,26.06
2024-04-14T13:57:28.856Z,26.29
2024-04-14T14:00:01.478Z,26.33
2024-04-14T14:02:30.242Z,26.29
2024-04-14T14:05:05.997Z,26.94
2024-04-14T14:07:36.025Z,26.91
2024-04-14T14:10:05.320Z,26.42
2024-04-14T14:12:34.469Z,26.71
2024-04-14T14:15:06.469Z,26.93
2024-04-14T14:17:36.532Z,27.39
2024-04-14T14:20:10.310Z,28.00
2024-04-14T14:22:45.506Z,28.16
2024-04-14T14:25:15.764Z,28.47
2024-04-14T14:27:47.585Z,28.66
2024-04-14T14:30:17.750Z,28.84
2024-04-14T14:32:46.577Z,28.81
2024-04-14T14:35:33.364Z,28.45
2024-04-14T14:38:03.628Z,28.73
2024-04-14T14:40:32.902Z,28.76
2024-04-14T14:43:02.579Z,28.58
2024-04-14T14:45:31.697Z,29.00
2024-04-14T14:48:00.384Z,28.68
2024-04-14T14:50:31.164Z,28.70
2024-04-14T14:53:03.898Z,28.67
2024-04-14T14:55:36.398Z,28.83
2024-04-14T14:58:06.154Z,28.75
2024-04-14T15:00:34.793Z,28.97
2024-04-14T15:03:03.973Z,29.12
2024-04-14T15:05:32.801Z,29.25
2024-04-14T15:08:07.519Z,29.23
2024-04-14T15:11:26.248Z,29.13
2024-04-14T15:14:07.323Z,29.28
2024-04-14T15:16:39.580Z,29.28
2024-04-14T15:19:12.630Z,29.14
2024-04-14T15:21:43.432Z,29.27
2024-04-14T15:24:21.309Z,29.34
2024-04-14T15:26:54.269Z,29.42
2024-04-14T15:29:27.618Z,29.49
2024-04-14T15:31:57.127Z,29.62
2024-04-14T15:34:30.141Z,29.91
2024-04-14T15:36:59.000Z,30.15
2024-04-14T15:39:28.381Z,30.45
2024-04-14T15:42:01.202Z,30.45
2024-04-14T15:44:30.390Z,30.22
2024-04-14T15:47:01.643Z,30.70
2024-04-14T15:49:30.102Z,31.01
2024-04-14T15:51:59.384Z,31.30
2024-04-14T15:54:28.010Z,31.60
2024-04-14T15:56:58.746Z,31.70
2024-04-14T15:59:33.328Z,31.81
2024-04-14T16:02:07.824Z,32.11
2024-04-14T16:04:37.257Z,32.31
2024-04-14T16:07:05.919Z,32.62
2024-04-14T16:09:35.201Z,32.74
2024-04-14T16:12:09.960Z,32.99
2024-04-14T16:14:46.047Z,33.13
2024-04-14T16:17:22.228Z,33.25
2024-04-14T16:19:50.647Z,33.55
2024-04-14T16:22:19.381Z,33.73
2024-04-14T16:24:48.602Z,34.05
2024-04-14T16:27:17.248Z,34.46
2024-04-14T16:29:48.153Z,34.72
2024-04-14T16:32:18.283Z,34.89
2024-04-14T16:34:48.342Z,35.26
2024-04-14T16:37:17.763Z,35.38
2024-04-14T16:39:46.828Z,35.59
2024-04-14T16:42:15.355Z,35.75
2024-04-14T16:44:43.857Z,35.95
2024-04-14T16:47:13.285Z,36.03
2024-04-14T16:49:43.484Z,36.35
2024-04-14T16:52:13.346Z,36.31
2024-04-14T16:54:45.054Z,36.46
2024-04-14T16:57:13.512Z,36.63
2024-04-14T16:59:42.451Z,36.72
2024-04-14T17:02:10.907Z,36.90
2024-04-14T17:04:41.174Z,36.88
2024-04-14T17:07:13.126Z,36.86
2024-04-14T17:09:41.968Z,37.01
2024-04-14T17:12:12.529Z,37.02
2024-04-14T17:14:45.601Z,37.23
2024-04-14T17:17:17.172Z,37.37
2024-04-14T17:19:46.484Z,37.37
2024-04-14T17:22:15.277Z,37.58
2024-04-14T17:24:45.832Z,37.77
2024-04-14T17:27:15.709Z,37.92
2024-04-14T17:29:44.310Z,38.01
2024-04-14T17:32:13.983Z,38.13
2024-04-14T17:34:45.411Z,38.31
2024-04-14T17:37:15.970Z,38.28
2024-04-14T17:39:45.359Z,38.34
2024-04-14T17:42:16.883Z,38.49
2024-04-14T17:44:47.015Z,38.63
2024-04-14T17:47:15.999Z,38.51
2024-04-14T17:49:45.942Z,38.53
2024-04-14T17:52:14.480Z,38.50
2024-04-14T17:54:43.078Z,38.43
2024-04-14T17:57:11.677Z,38.44
2024-04-14T17:59:41.376Z,38.50
2024-04-14T18:02:10.002Z,38.56
2024-04-14T18:04:42.734Z,38.68
2024-04-14T18:07:12.134Z,38.77
2024-04-14T18:09:48.333Z,38.73
2024-04-14T18:12:22.031Z,39.01
2024-04-14T18:14:50.415Z,39.02
2024-04-14T18:17:28.647Z,39.21
2024-04-14T18:19:57.887Z,39.33
2024-04-14T18:22:26.712Z,39.39
2024-04-14T18:24:59.406Z,39.40
2024-04-14T18:27:29.254Z,39.57
2024-04-14T18:29:57.799Z,39.45
2024-04-14T18:32:26.210Z,39.46
2024-04-14T18:34:55.042Z,39.64
2024-04-14T18:37:23.970Z,39.77
2024-04-14T18:39:53.532Z,39.98
2024-04-14T18:42:22.702Z,39.85
2024-04-14T18:44:51.388Z,39.89
2024-04-14T18:47:19.796Z,40.07
2024-04-14T18:49:48.774Z,39.97
2024-04-14T18:52:18.839Z,40.13
2024-04-14T18:54:47.776Z,39.83
2024-04-14T18:57:20.416Z,39.85
2024-04-14T18:59:50.181Z,39.95
2024-04-14T19:02:18.779Z,39.75
2024-04-14T19:04:48.651Z,39.78
2024-04-14T19:07:18.302Z,39.83
2024-04-14T19:09:47.822Z,39.68
2024-04-14T19:12:19.236Z,39.77
2024-04-14T19:14:51.775Z,39.70
2024-04-14T19:17:22.101Z,39.58
2024-04-14T19:19:50.818Z,39.76
2024-04-14T19:22:25.411Z,39.71
2024-04-14T19:24:55.883Z,39.84
2024-04-14T19:27:24.506Z,39.71
2024-04-14T19:29:54.786Z,39.84
2024-04-14T19:32:23.297Z,40.02
2024-04-14T19:34:51.983Z,40.02
2024-04-14T19:37:20.405Z,40.11
2024-04-14T19:39:51.887Z,40.18
2024-04-14T19:42:20.465Z,40.30
2024-04-14T19:44:48.986Z,40.34
2024-04-14T19:47:19.744Z,40.46
2024-04-14T19:49:48.709Z,40.58
2024-04-14T19:52:17.566Z,40.75
2024-04-14T19:54:53.307Z,40.81
2024-04-14T19:57:24.400Z,40.89
2024-04-14T19:59:54.722Z,41.17
2024-04-14T20:02:24.308Z,41.28
2024-04-14T20:04:53.191Z,41.28
2024-04-14T20:07:22.178Z,41.71
2024-04-14T20:09:53.260Z,42.04
2024-04-14T20:12:21.924Z,42.13
2024-04-14T20:14:50.738Z,42.19
2024-04-14T20:17:19.459Z,42.36
2024-04-14T20:19:48.990Z,42.30
2024-04-14T20:22:19.095Z,42.66
2024-04-14T20:24:53.483Z,42.73
2024-04-14T20:27:31.338Z,42.97
2024-04-14T20:30:07.241Z,43.12
2024-04-14T20:32:36.851Z,43.20
2024-04-14T20:35:05.823Z,43.51
2024-04-14T20:37:36.483Z,43.79
2024-04-14T20:40:07.450Z,44.02
2024-04-14T20:42:36.292Z,44.01
2024-04-14T20:45:06.368Z,44.14
2024-04-14T20:47:35.085Z,44.29
2024-04-14T20:50:05.170Z,44.23
2024-04-14T20:52:34.816Z,44.26
2024-04-14T20:55:04.459Z,44.65
2024-04-14T20:57:33.231Z,45.04
2024-04-14T21:00:04.407Z,44.77
2024-04-14T21:02:35.397Z,45.11
2024-04-14T21:05:11.900Z,45.15
2024-04-14T21:07:43.266Z,44.91
2024-04-14T21:12:45.797Z,45.16
2024-04-14T21:15:14.663Z,45.27
2024-04-14T21:17:43.788Z,45.36
2024-04-14T21:20:13.711Z,45.31
2024-04-14T21:22:47.814Z,45.30
2024-04-14T21:25:17.915Z,45.61
2024-04-14T21:27:47.446Z,45.70
2024-04-14T21:30:17.589Z,45.64
2024-04-14T21:32:47.310Z,45.49
2024-04-14T21:35:23.404Z,45.64
2024-04-14T21:37:52.832Z,45.81
2024-04-14T21:40:21.422Z,45.82
2024-04-14T21:42:52.928Z,45.92
2024-04-14T21:45:22.929Z,45.95
2024-04-14T21:47:52.214Z,46.01
2024-04-14T21:50:21.599Z,45.99
2024-04-14T21:53:02.880Z,45.96
2024-04-14T21:55:32.974Z,45.88
2024-04-14T21:58:01.556Z,45.86
2024-04-14T22:00:32.787Z,45.49
2024-04-14T22:03:09.095Z,45.29
2024-04-14T22:05:59.369Z,45.22
2024-04-14T22:08:29.027Z,45.08
2024-04-14T22:11:00.903Z,44.90
2024-04-14T22:13:33.757Z,44.86
2024-04-14T22:16:09.354Z,44.56
2024-04-14T22:18:49.268Z,44.69
2024-04-14T22:21:20.525Z,44.56
2024-04-14T22:23:53.203Z,44.81
2024-04-14T22:26:21.580Z,45.03
2024-04-14T22:28:52.326Z,45.06
2024-04-14T22:31:20.982Z,45.30
2024-04-14T22:33:50.080Z,45.32
2024-04-14T22:36:21.245Z,45.42
2024-04-14T22:38:55.784Z,45.58
2024-04-14T22:41:31.718Z,45.46
2024-04-14T22:44:02.033Z,45.61
2024-04-14T22:46:30.704Z,45.71
2024-04-14T22:49:01.323Z,45.81
2024-04-14T22:51:30.343Z,46.00
2024-04-14T22:54:07.941Z,46.40
2024-04-14T22:56:37.647Z,46.54
2024-04-14T22:59:07.671Z,46.75
2024-04-14T23:01:44.931Z,46.76
2024-04-14T23:04:13.669Z,47.03
2024-04-14T23:06:48.230Z,47.06
2024-04-14T23:09:18.351Z,46.98
2024-04-14T23:11:47.250Z,47.18
2024-04-14T23:14:17.191Z,47.02
2024-04-14T23:16:48.550Z,47.36
2024-04-14T23:19:29.997Z,47.39
2024-04-14T23:22:02.594Z,47.37
2024-04-14T23:24:35.074Z,47.46
2024-04-14T23:27:08.108Z,47.72
2024-04-14T23:29:38.445Z,47.76
2024-04-14T23:32:16.062Z,47.78
2024-04-14T23:35:38.975Z,47.84
2024-04-14T23:38:14.624Z,47.87
2024-04-14T23:40:43.467Z,47.63
2024-04-14T23:43:12.051Z,47.69
2024-04-14T23:45:42.561Z,47.87
2024-04-14T23:48:11.577Z,47.81
2024-04-14T23:50:44.843Z,47.71
2024-04-14T23:53:15.774Z,47.65
2024-04-14T23:55:48.181Z,47.78
2024-04-14T23:58:26.572Z,48.07
